createdAt,value
2019-04-29T00:01:19.820Z,69.20
2019-04-29T00:03:46.475Z,69.30
2019-04-29T00:06:13.244Z,68.50
2019-04-29T00:08:40.415Z,67.90
2019-04-29T00:11:07.559Z,68.90
2019-04-29T00:13:34.371Z,68.60
2019-04-29T00:16:03.046Z,68.60
2019-04-29T00:18:48.624Z,68.40
2019-04-29T00:21:16.293Z,67.80
2019-04-29T00:23:42.964Z,67.10
2019-04-29T00:26:10.252Z,67.30
2019-04-29T00:28:37.569Z,67.20
2019-04-29T00:31:04.560Z,67.00
2019-04-29T00:33:31.245Z,67.10
2019-04-29T00:35:58.233Z,67.90
2019-04-29T00:38:27.498Z,67.70
2019-04-29T00:40:56.278Z,67.60
2019-04-29T00:43:41.095Z,67.30
2019-04-29T00:46:07.971Z,67.30
2019-04-29T00:48:34.878Z,67.90
2019-04-29T00:51:01.664Z,67.80
2019-04-29T00:53:28.631Z,67.60
2019-04-29T00:55:55.240Z,67.60
2019-04-29T00:58:23.790Z,67.60
2019-04-29T01:00:50.597Z,67.70
2019-04-29T01:03:17.203Z,68.20
2019-04-29T01:05:43.862Z,68.50
2019-04-29T01:08:11.003Z,68.10
2019-04-29T01:10:38.083Z,68.40
2019-04-29T01:13:05.148Z,68.50
2019-04-29T01:15:32.407Z,68.80
2019-04-29T01:17:59.415Z,69.30
2019-04-29T01:20:26.463Z,69.00
2019-04-29T01:22:53.349Z,68.80
2019-04-29T01:25:20.137Z,68.20
2019-04-29T01:27:48.834Z,67.90
2019-04-29T01:30:40.148Z,67.50
2019-04-29T01:33:06.591Z,67.20
2019-04-29T01:35:33.108Z,66.90
2019-04-29T01:37:59.717Z,66.70
2019-04-29T01:40:27.980Z,66.70
2019-04-29T01:42:54.605Z,67.00
2019-04-29T01:45:21.222Z,67.70
2019-04-29T01:47:47.796Z,67.60
2019-04-29T01:50:14.463Z,68.20
2019-04-29T01:52:40.983Z,68.10
2019-04-29T01:55:07.728Z,67.90
2019-04-29T01:57:34.344Z,67.20
2019-04-29T02:00:01.347Z,67.00
2019-04-29T02:02:28.192Z,67.20
2019-04-29T02:04:54.930Z,67.70
2019-04-29T02:07:21.685Z,68.50
2019-04-29T02:09:56.000Z,68.70
2019-04-29T02:12:22.677Z,68.80
2019-04-29T02:14:49.107Z,69.10
2019-04-29T02:17:15.832Z,68.80
2019-04-29T02:19:42.253Z,68.70
2019-04-29T02:22:10.797Z,68.40
2019-04-29T02:24:42.549Z,68.30
2019-04-29T02:27:09.209Z,68.00
2019-04-29T02:29:35.827Z,68.00
2019-04-29T02:32:02.662Z,68.00
2019-04-29T02:34:29.136Z,68.00
2019-04-29T02:36:57.181Z,68.10
2019-04-29T02:39:25.841Z,68.60
2019-04-29T02:42:10.865Z,69.30
2019-04-29T02:44:37.708Z,70.00
2019-04-29T02:47:04.318Z,69.50
2019-04-29T02:49:32.972Z,69.00
2019-04-29T02:51:59.579Z,68.70
2019-04-29T02:54:27.977Z,69.40
2019-04-29T02:57:02.273Z,68.50
2019-04-29T02:59:39.619Z,68.20
2019-04-29T03:02:14.107Z,68.60
2019-04-29T03:04:51.157Z,68.60
2019-04-29T03:07:17.815Z,68.20
2019-04-29T03:09:44.366Z,68.30
2019-04-29T03:12:11.164Z,69.00
2019-04-29T03:14:37.790Z,68.30
2019-04-29T03:17:04.482Z,68.00
2019-04-29T03:19:35.639Z,68.00
2019-04-29T03:22:03.659Z,68.10
2019-04-29T03:24:30.508Z,68.70
2019-04-29T03:26:57.177Z,68.40
2019-04-29T03:29:23.800Z,68.80
2019-04-29T03:31:51.732Z,67.90
2019-04-29T03:34:20.146Z,67.50
2019-04-29T03:36:46.734Z,67.10
2019-04-29T03:39:13.688Z,67.90
2019-04-29T03:41:40.675Z,66.90
2019-04-29T03:44:07.316Z,67.10
2019-04-29T03:46:33.870Z,67.20
2019-04-29T03:49:00.320Z,67.00
2019-04-29T03:51:29.822Z,66.90
2019-04-29T03:53:56.393Z,66.80
2019-04-29T03:56:22.908Z,67.70
2019-04-29T03:58:49.531Z,66.40
2019-04-29T04:01:18.229Z,66.40
2019-04-29T04:03:46.952Z,66.30
2019-04-29T04:06:18.483Z,66.60
2019-04-29T04:09:04.275Z,67.20
2019-04-29T04:11:15.427Z,67.50
2019-04-29T04:13:42.057Z,67.40
2019-04-29T04:16:10.421Z,67.30
2019-04-29T04:18:37.741Z,67.20
2019-04-29T04:21:04.526Z,67.50
2019-04-29T04:23:31.034Z,67.70
2019-04-29T04:25:57.678Z,68.30
2019-04-29T04:28:24.328Z,68.60
2019-04-29T04:30:51.313Z,68.90
2019-04-29T04:33:18.174Z,69.50
2019-04-29T04:35:44.589Z,69.10
2019-04-29T04:38:11.341Z,69.40
2019-04-29T04:40:39.878Z,69.60
2019-04-29T04:43:10.315Z,69.70
2019-04-29T04:45:36.790Z,70.10
2019-04-29T04:48:03.385Z,70.60
2019-04-29T04:50:30.049Z,70.80
2019-04-29T04:52:57.010Z,71.10
2019-04-29T04:55:25.697Z,71.10
2019-04-29T04:57:52.440Z,70.80
2019-04-29T05:00:24.427Z,70.50
2019-04-29T05:02:51.021Z,70.30
2019-04-29T05:05:17.812Z,70.70
2019-04-29T05:07:46.075Z,70.70
2019-04-29T05:10:12.933Z,71.30
2019-04-29T05:12:39.333Z,71.40
2019-04-29T05:15:06.045Z,71.20
2019-04-29T05:17:32.676Z,70.90
2019-04-29T05:19:59.124Z,70.70
2019-04-29T05:22:26.052Z,70.60
2019-04-29T05:24:52.791Z,70.90
2019-04-29T05:27:20.469Z,71.00
2019-04-29T05:29:47.285Z,71.30
2019-04-29T05:32:13.833Z,71.50
2019-04-29T05:34:46.447Z,72.00
2019-04-29T05:37:12.503Z,73.20
2019-04-29T05:39:43.482Z,73.90
2019-04-29T05:42:15.997Z,74.00
2019-04-29T05:44:40.647Z,73.90
2019-04-29T05:47:09.300Z,73.70
2019-04-29T05:49:41.657Z,73.60
2019-04-29T05:52:23.408Z,74.20
2019-04-29T05:54:49.994Z,74.70
2019-04-29T05:57:20.493Z,74.60
2019-04-29T05:59:47.893Z,74.50
2019-04-29T06:02:13.661Z,74.60
2019-04-29T06:04:41.939Z,74.70
2019-04-29T06:07:08.872Z,75.30
2019-04-29T06:09:35.349Z,75.90
2019-04-29T06:12:01.968Z,76.40
2019-04-29T06:14:28.703Z,77.00
2019-04-29T06:16:57.613Z,77.30
2019-04-29T06:19:23.586Z,77.50
2019-04-29T06:21:50.361Z,77.90
2019-04-29T06:24:16.967Z,78.90
2019-04-29T06:26:43.861Z,80.70
2019-04-29T06:29:11.184Z,79.70
2019-04-29T06:31:37.902Z,79.20
2019-04-29T06:34:05.330Z,78.50
2019-04-29T06:36:33.268Z,78.30
2019-04-29T06:39:00.299Z,77.90
2019-04-29T06:41:27.061Z,77.80
2019-04-29T06:43:55.983Z,78.00
2019-04-29T06:46:22.434Z,77.90
2019-04-29T06:48:49.000Z,78.30
2019-04-29T06:51:15.625Z,78.40
2019-04-29T06:53:42.542Z,78.90
2019-04-29T06:56:09.624Z,79.10
2019-04-29T06:58:36.913Z,79.00
2019-04-29T07:01:04.693Z,79.40
2019-04-29T07:03:31.738Z,79.60
2019-04-29T07:05:58.860Z,79.20
2019-04-29T07:08:26.098Z,79.90
2019-04-29T07:10:55.965Z,80.10
2019-04-29T07:13:24.596Z,78.80
2019-04-29T07:15:51.776Z,78.50
2019-04-29T07:18:19.089Z,78.90
2019-04-29T07:20:46.254Z,79.10
2019-04-29T07:23:13.236Z,79.30
2019-04-29T07:25:40.235Z,79.40
2019-04-29T07:28:07.283Z,79.90
2019-04-29T07:30:39.168Z,80.10
2019-04-29T07:33:05.460Z,80.00
2019-04-29T07:35:32.011Z,79.10
2019-04-29T07:37:58.945Z,79.70
2019-04-29T07:40:26.619Z,78.90
2019-04-29T07:42:53.768Z,79.20
2019-04-29T07:45:29.222Z,79.90
2019-04-29T07:47:57.176Z,79.50
2019-04-29T07:50:26.748Z,79.40
2019-04-29T07:52:53.418Z,78.40
2019-04-29T07:55:20.612Z,78.60
2019-04-29T07:57:52.082Z,78.10
2019-04-29T08:00:19.011Z,77.50
2019-04-29T08:02:45.926Z,77.90
2019-04-29T08:05:12.738Z,76.60
2019-04-29T08:07:40.319Z,76.20
2019-04-29T08:10:22.822Z,76.20
2019-04-29T08:12:37.078Z,75.80
2019-04-29T08:15:07.853Z,75.50
2019-04-29T08:17:33.944Z,74.80
2019-04-29T08:20:00.790Z,73.70
2019-04-29T08:22:29.724Z,71.60
2019-04-29T08:24:56.552Z,70.30
2019-04-29T08:27:24.959Z,70.30
2019-04-29T08:29:51.489Z,68.10
2019-04-29T08:32:18.175Z,63.60
2019-04-29T08:34:44.708Z,57.10
2019-04-29T08:37:12.325Z,53.60
2019-04-29T08:39:39.388Z,52.00
2019-04-29T08:42:09.780Z,51.50
2019-04-29T08:44:50.513Z,51.20
2019-04-29T08:47:34.363Z,49.00
2019-04-29T08:50:01.105Z,47.80
2019-04-29T08:52:27.585Z,46.30
2019-04-29T08:54:55.285Z,46.20
2019-04-29T08:57:22.581Z,44.20
2019-04-29T08:59:49.133Z,45.50
2019-04-29T09:02:33.200Z,48.00
2019-04-29T09:04:53.603Z,46.70
2019-04-29T09:07:17.472Z,47.30
2019-04-29T09:09:48.239Z,45.20
2019-04-29T09:12:12.109Z,43.60
2019-04-29T09:14:38.615Z,41.20
2019-04-29T09:17:19.552Z,38.80
2019-04-29T09:19:33.549Z,39.40
2019-04-29T09:22:04.738Z,38.90
2019-04-29T09:24:31.308Z,35.80
2019-04-29T09:26:59.976Z,35.50
2019-04-29T09:29:29.486Z,36.20
2019-04-29T09:31:57.177Z,37.00
2019-04-29T09:34:24.623Z,36.50
2019-04-29T09:36:54.246Z,35.30
2019-04-29T09:39:21.820Z,32.60
2019-04-29T09:41:53.356Z,30.70
2019-04-29T09:44:30.702Z,31.10
2019-04-29T09:46:57.431Z,32.50
2019-04-29T09:49:24.127Z,30.70
2019-04-29T09:51:51.022Z,28.40
2019-04-29T09:54:17.540Z,30.00
2019-04-29T09:56:43.991Z,30.00
2019-04-29T09:59:29.118Z,29.40
2019-04-29T10:02:09.861Z,29.20
2019-04-29T10:04:55.824Z,28.70
2019-04-29T10:07:21.159Z,28.60
2019-04-29T10:09:57.069Z,26.90
2019-04-29T10:12:16.434Z,27.60
2019-04-29T10:14:44.441Z,25.60
2019-04-29T10:17:20.025Z,25.50
2019-04-29T10:20:07.908Z,26.10
2019-04-29T10:22:34.190Z,24.50
2019-04-29T10:25:03.268Z,25.50
2019-04-29T10:27:29.717Z,25.60
2019-04-29T10:29:57.165Z,24.60
2019-04-29T10:32:24.227Z,24.40
2019-04-29T10:34:51.087Z,24.20
2019-04-29T10:37:17.889Z,24.00
2019-04-29T10:40:10.966Z,23.60
2019-04-29T10:42:33.530Z,22.60
2019-04-29T10:45:18.779Z,22.40
2019-04-29T10:47:47.320Z,21.60
2019-04-29T10:50:19.016Z,20.90
2019-04-29T10:52:45.759Z,21.70
2019-04-29T10:55:13.495Z,21.40
2019-04-29T10:57:40.182Z,21.40
2019-04-29T11:00:16.923Z,20.20
2019-04-29T11:02:44.714Z,20.80
2019-04-29T11:05:31.231Z,20.40
2019-04-29T11:08:02.505Z,22.40
2019-04-29T11:10:31.170Z,23.40
2019-04-29T11:12:58.439Z,24.00
2019-04-29T11:15:32.522Z,25.40
2019-04-29T11:18:01.692Z,25.50
2019-04-29T11:20:27.359Z,25.50
2019-04-29T11:22:55.911Z,25.50
2019-04-29T11:25:24.455Z,25.90
2019-04-29T11:27:55.851Z,26.30
2019-04-29T11:30:23.228Z,27.50
2019-04-29T11:32:51.565Z,28.10
2019-04-29T11:35:28.471Z,28.50
2019-04-29T11:37:59.894Z,29.10
2019-04-29T11:40:42.780Z,28.90
2019-04-29T11:42:53.419Z,28.30
2019-04-29T11:45:22.912Z,27.50
2019-04-29T11:47:49.472Z,27.90
2019-04-29T11:50:21.356Z,28.30
2019-04-29T11:52:48.033Z,29.20
2019-04-29T11:55:18.597Z,28.30
2019-04-29T11:57:44.720Z,28.10
2019-04-29T12:00:17.351Z,28.60
2019-04-29T12:02:48.854Z,28.90
2019-04-29T12:05:17.426Z,30.10
2019-04-29T12:07:43.894Z,30.30
2019-04-29T12:10:10.774Z,30.00
2019-04-29T12:12:37.814Z,29.20
2019-04-29T12:15:17.469Z,29.30
2019-04-29T12:17:45.767Z,29.10
2019-04-29T12:20:14.536Z,29.10
2019-04-29T12:22:48.264Z,29.10
2019-04-29T12:25:10.301Z,29.50
2019-04-29T12:27:37.043Z,29.00
2019-04-29T12:30:08.528Z,29.30
2019-04-29T12:32:37.137Z,29.40
2019-04-29T12:35:06.250Z,29.80
2019-04-29T12:37:35.218Z,29.70
2019-04-29T12:40:05.158Z,30.20
2019-04-29T12:42:50.286Z,30.20
2019-04-29T12:45:35.508Z,30.10
2019-04-29T12:48:06.236Z,31.40
2019-04-29T12:50:32.121Z,31.80
2019-04-29T12:52:58.786Z,32.30
2019-04-29T12:55:43.470Z,32.70
2019-04-29T12:57:55.743Z,31.80
2019-04-29T13:00:24.315Z,32.20
2019-04-29T13:03:05.079Z,32.70
2019-04-29T13:05:33.873Z,33.20
2019-04-29T13:08:04.927Z,32.60
2019-04-29T13:10:48.712Z,32.70
2019-04-29T13:13:19.497Z,32.60
2019-04-29T13:15:54.259Z,32.90
2019-04-29T13:18:37.648Z,32.10
2019-04-29T13:21:10.518Z,32.40
2019-04-29T13:23:37.739Z,32.30
2019-04-29T13:26:00.995Z,33.40
2019-04-29T13:28:30.434Z,34.00
2019-04-29T13:30:56.793Z,34.40
2019-04-29T13:33:25.160Z,34.60
2019-04-29T13:35:51.789Z,33.90
2019-04-29T13:38:18.383Z,34.30
2019-04-29T13:40:46.844Z,34.10
2019-04-29T13:43:13.462Z,33.50
2019-04-29T13:45:54.278Z,33.80
2019-04-29T13:48:25.746Z,32.70
2019-04-29T13:51:00.147Z,32.50
2019-04-29T13:53:27.834Z,33.00
2019-04-29T13:56:11.403Z,31.70
2019-04-29T13:58:27.162Z,32.30
2019-04-29T14:01:21.084Z,32.10
2019-04-29T14:03:47.111Z,32.20
2019-04-29T14:06:18.557Z,32.30
2019-04-29T14:08:41.881Z,32.40
2019-04-29T14:11:08.473Z,33.00
2019-04-29T14:13:38.675Z,32.80
2019-04-29T14:16:03.356Z,32.30
2019-04-29T14:18:29.932Z,32.70
2019-04-29T14:20:56.482Z,33.10
2019-04-29T14:23:22.938Z,32.80
2019-04-29T14:25:51.621Z,32.90
2019-04-29T14:28:19.927Z,33.70
2019-04-29T14:30:47.702Z,34.50
2019-04-29T14:33:19.315Z,34.10
2019-04-29T14:35:52.465Z,34.60
2019-04-29T14:38:20.276Z,34.40
2019-04-29T14:40:47.337Z,35.20
2019-04-29T14:43:30.730Z,35.40
2019-04-29T14:45:55.327Z,36.10
2019-04-29T14:48:41.654Z,35.60
2019-04-29T14:50:58.611Z,34.90
2019-04-29T14:53:26.308Z,35.10
2019-04-29T14:55:53.150Z,34.70
2019-04-29T14:58:19.963Z,35.40
2019-04-29T15:00:51.491Z,34.80
2019-04-29T15:03:20.242Z,36.10
2019-04-29T15:05:46.645Z,34.80
2019-04-29T15:08:13.245Z,35.00
2019-04-29T15:10:40.564Z,34.30
2019-04-29T15:13:20.791Z,33.80
2019-04-29T15:15:45.220Z,34.40
2019-04-29T15:18:38.661Z,34.70
2019-04-29T15:21:08.614Z,34.40
2019-04-29T15:23:35.485Z,34.20
2019-04-29T15:26:02.266Z,34.60
2019-04-29T15:28:28.874Z,35.30
2019-04-29T15:30:55.453Z,35.80
2019-04-29T15:33:22.125Z,37.40
2019-04-29T15:35:48.830Z,36.90
2019-04-29T15:38:18.296Z,37.70
2019-04-29T15:40:45.179Z,38.20
2019-04-29T15:43:12.541Z,39.00
2019-04-29T15:45:40.624Z,39.60
2019-04-29T15:48:07.761Z,40.10
2019-04-29T15:50:37.099Z,40.60
2019-04-29T15:53:04.375Z,41.30
2019-04-29T15:55:34.892Z,41.70
2019-04-29T15:57:59.938Z,42.30
2019-04-29T16:00:36.693Z,42.60
2019-04-29T16:02:58.031Z,42.50
2019-04-29T16:05:35.174Z,42.90
2019-04-29T16:08:16.015Z,43.60
2019-04-29T16:10:51.669Z,43.40
2019-04-29T16:13:22.489Z,43.40
2019-04-29T16:15:48.011Z,42.70
2019-04-29T16:18:15.107Z,43.40
2019-04-29T16:20:42.051Z,43.60
2019-04-29T16:23:08.914Z,43.30
2019-04-29T16:25:40.600Z,42.60
2019-04-29T16:28:04.436Z,42.50
2019-04-29T16:30:31.784Z,42.30
2019-04-29T16:32:58.986Z,42.90
2019-04-29T16:35:28.466Z,43.20
2019-04-29T16:37:54.713Z,44.20
2019-04-29T16:40:21.627Z,43.10
2019-04-29T16:42:59.002Z,43.70
2019-04-29T16:45:33.291Z,43.60
2019-04-29T16:48:00.033Z,43.60
2019-04-29T16:50:27.172Z,43.50
2019-04-29T16:52:53.895Z,42.90
2019-04-29T16:55:20.560Z,42.80
2019-04-29T16:57:47.206Z,42.50
2019-04-29T17:00:16.236Z,42.40
2019-04-29T17:02:43.039Z,42.50
2019-04-29T17:05:10.270Z,42.70
2019-04-29T17:07:37.320Z,42.80
2019-04-29T17:10:12.873Z,42.20
2019-04-29T17:12:41.602Z,42.30
2019-04-29T17:15:23.027Z,42.40
2019-04-29T17:17:40.102Z,42.40
2019-04-29T17:20:07.943Z,42.30
2019-04-29T17:22:35.598Z,42.40
2019-04-29T17:25:05.733Z,42.90
2019-04-29T17:27:35.094Z,42.90
2019-04-29T17:30:09.396Z,42.80
2019-04-29T17:32:51.061Z,42.50
2019-04-29T17:35:21.415Z,42.20
2019-04-29T17:37:48.088Z,42.30
2019-04-29T17:40:16.473Z,42.40
2019-04-29T17:42:45.235Z,42.60
2019-04-29T17:45:21.881Z,42.40
2019-04-29T17:47:57.004Z,41.60
2019-04-29T17:50:30.613Z,41.40
2019-04-29T17:52:57.066Z,40.90
2019-04-29T17:55:37.195Z,40.60
2019-04-29T17:57:58.778Z,40.10
2019-04-29T18:00:43.693Z,40.00
2019-04-29T18:03:11.077Z,39.80
2019-04-29T18:05:53.042Z,40.10
2019-04-29T18:08:27.222Z,40.40
2019-04-29T18:10:59.721Z,40.30
2019-04-29T18:13:26.484Z,40.70
2019-04-29T18:16:01.481Z,40.70
2019-04-29T18:18:45.807Z,40.90
2019-04-29T18:21:24.993Z,40.50
2019-04-29T18:24:05.922Z,40.90
2019-04-29T18:26:36.379Z,41.40
2019-04-29T18:29:06.037Z,42.00
2019-04-29T18:31:32.567Z,41.90
2019-04-29T18:33:59.982Z,42.20
2019-04-29T18:36:27.056Z,42.50
2019-04-29T18:38:55.592Z,43.00
2019-04-29T18:41:26.744Z,42.80
2019-04-29T18:43:56.583Z,43.00
2019-04-29T18:46:25.767Z,43.20
2019-04-29T18:49:02.802Z,43.70
2019-04-29T18:51:29.435Z,43.90
2019-04-29T18:54:00.135Z,44.50
2019-04-29T18:56:27.343Z,44.70
2019-04-29T18:58:55.583Z,45.00
2019-04-29T19:01:24.165Z,45.00
2019-04-29T19:04:10.160Z,44.80
2019-04-29T19:06:40.485Z,44.70
2019-04-29T19:09:17.557Z,45.10
2019-04-29T19:11:40.791Z,45.50
2019-04-29T19:14:07.842Z,45.50
2019-04-29T19:16:36.274Z,46.20
2019-04-29T19:19:05.071Z,46.30
2019-04-29T19:21:32.221Z,46.70
2019-04-29T19:24:02.312Z,47.00
2019-04-29T19:26:32.229Z,47.10
2019-04-29T19:29:01.192Z,47.20
2019-04-29T19:31:29.717Z,47.70
2019-04-29T19:34:09.674Z,47.90
2019-04-29T19:36:35.003Z,48.90
2019-04-29T19:39:21.844Z,48.80
2019-04-29T19:41:50.376Z,49.90
2019-04-29T19:44:33.288Z,49.00
2019-04-29T19:47:00.359Z,49.00
2019-04-29T19:49:27.118Z,49.40
2019-04-29T19:51:55.526Z,49.70
2019-04-29T19:54:31.404Z,49.70
2019-04-29T19:57:03.261Z,49.90
2019-04-29T19:59:28.563Z,50.40
2019-04-29T20:02:02.155Z,50.70
2019-04-29T20:04:26.339Z,51.00
2019-04-29T20:06:58.654Z,50.70
2019-04-29T20:09:23.728Z,50.90
2019-04-29T20:11:51.030Z,50.90
2019-04-29T20:14:24.398Z,51.40
2019-04-29T20:17:09.896Z,51.90
2019-04-29T20:19:40.488Z,52.30
2019-04-29T20:22:09.272Z,52.30
2019-04-29T20:24:36.312Z,52.30
2019-04-29T20:27:05.484Z,52.60
2019-04-29T20:29:34.019Z,53.00
2019-04-29T20:32:01.159Z,52.90
2019-04-29T20:34:28.440Z,53.00
2019-04-29T20:36:55.824Z,52.70
2019-04-29T20:39:25.794Z,52.50
2019-04-29T20:41:51.774Z,52.30
2019-04-29T20:44:19.042Z,52.70
2019-04-29T20:47:12.676Z,52.70
2019-04-29T20:49:16.116Z,52.70
2019-04-29T20:51:49.747Z,52.80
2019-04-29T20:54:19.447Z,53.00
2019-04-29T20:56:47.349Z,53.30
2019-04-29T20:59:15.497Z,53.40
2019-04-29T21:01:48.169Z,53.20
2019-04-29T21:04:30.484Z,53.40
2019-04-29T21:06:59.091Z,53.70
2019-04-29T21:09:14.750Z,54.10
2019-04-29T21:11:46.971Z,53.80
2019-04-29T21:14:21.425Z,54.20
2019-04-29T21:16:50.555Z,54.60
2019-04-29T21:19:17.627Z,54.80
2019-04-29T21:24:49.385Z,55.50
2019-04-29T21:27:22.169Z,55.70
2019-04-29T21:29:49.754Z,55.70
2019-04-29T21:32:15.639Z,55.70
2019-04-29T21:34:47.480Z,55.50
2019-04-29T21:37:22.230Z,55.70
2019-04-29T21:39:55.080Z,55.60
2019-04-29T21:42:29.669Z,55.70
2019-04-29T21:44:52.472Z,55.60
2019-04-29T21:47:20.177Z,55.60
2019-04-29T21:49:49.792Z,55.70
2019-04-29T21:52:19.566Z,55.90
2019-04-29T21:54:49.123Z,56.00
2019-04-29T21:57:17.025Z,56.00
2019-04-29T21:59:46.005Z,56.10
2019-04-29T22:02:12.977Z,56.10
2019-04-29T22:04:40.097Z,56.30
2019-04-29T22:07:09.096Z,56.40
2019-04-29T22:09:40.281Z,56.40
2019-04-29T22:12:06.138Z,56.80
2019-04-29T22:14:35.219Z,57.10
2019-04-29T22:17:02.537Z,57.00
2019-04-29T22:19:29.583Z,56.80
2019-04-29T22:21:59.724Z,56.70
2019-04-29T22:24:26.323Z,57.00
2019-04-29T22:26:58.163Z,57.00
2019-04-29T22:29:22.567Z,57.00
2019-04-29T22:31:51.465Z,57.00
2019-04-29T22:34:19.345Z,57.00
2019-04-29T22:36:48.167Z,56.90
2019-04-29T22:39:15.828Z,57.20
2019-04-29T22:41:48.785Z,57.20
2019-04-29T22:44:21.670Z,57.30
2019-04-29T22:46:47.246Z,57.70
2019-04-29T22:49:18.208Z,57.70
2019-04-29T22:51:45.418Z,57.70
2019-04-29T22:54:11.981Z,57.50
2019-04-29T22:56:40.662Z,58.20
2019-04-29T22:59:07.742Z,57.90
2019-04-29T23:01:36.296Z,58.20
2019-04-29T23:04:05.139Z,58.70
2019-04-29T23:06:32.366Z,58.50
2019-04-29T23:08:59.484Z,58.30
2019-04-29T23:11:26.461Z,58.20
2019-04-29T23:13:53.134Z,58.20
2019-04-29T23:16:19.825Z,58.30
2019-04-29T23:18:46.858Z,58.40
2019-04-29T23:21:43.042Z,58.50
2019-04-29T23:24:17.409Z,58.50
2019-04-29T23:26:44.895Z,58.70
2019-04-29T23:29:12.109Z,58.90
2019-04-29T23:31:38.837Z,59.20
2019-04-29T23:34:05.831Z,59.20
2019-04-29T23:36:33.001Z,59.10
2019-04-29T23:38:59.621Z,59.10
2019-04-29T23:41:32.888Z,59.10
2019-04-29T23:43:55.628Z,58.90
2019-04-29T23:46:23.941Z,59.00
2019-04-29T23:48:50.777Z,59.00
2019-04-29T23:51:17.468Z,59.10
2019-04-29T23:53:45.593Z,59.30
2019-04-29T23:56:12.486Z,59.70
2019-04-29T23:58:47.445Z,59.80
